Time;durP1;ratioP1;P1;durP2;ratioP2;P2;SDS_P1;SDS_P2;PMS_P1;PMS_P2;Temp;Humidity;BMP_temperature;BMP_pressure;BME280_temperature;BME280_humidity;BME280_pressure;Samples;Min_cycle;Max_cycle;Signal;HPM_P1;HPM_P2
2023/03/30 00:01:38;;;;;;;8.23;7.43;;;8.60;93.50;;;;;;5030853;28;20520;-53
2023/03/30 00:04:05;;;;;;;9.10;8.00;;;8.60;93.70;;;;;;5020954;28;20543;-53
2023/03/30 00:06:33;;;;;;;10.00;7.80;;;8.60;96.40;;;;;;5032472;28;20447;-53
2023/03/30 00:08:59;;;;;;;8.43;7.40;;;8.60;97.30;;;;;;5023824;28;20563;-53
2023/03/30 00:11:27;;;;;;;9.00;7.40;;;8.70;97.60;;;;;;5031591;28;20459;-54
2023/03/30 00:13:54;;;;;;;8.90;8.10;;;8.70;97.00;;;;;;5030897;28;20486;-53
2023/03/30 00:16:22;;;;;;;8.50;7.67;;;8.60;91.60;;;;;;5030612;28;20468;-53
2023/03/30 00:18:49;;;;;;;8.40;7.43;;;8.70;84.40;;;;;;5023895;28;20561;-53
2023/03/30 00:21:16;;;;;;;17.03;8.50;;;8.60;82.20;;;;;;5027697;28;20481;-52
2023/03/30 00:23:45;;;;;;;12.27;7.50;;;8.60;78.70;;;;;;5025986;28;20497;-53
2023/03/30 00:26:12;;;;;;;10.27;8.20;;;8.60;77.80;;;;;;5030167;28;20490;-54
2023/03/30 00:28:39;;;;;;;9.60;8.17;;;8.70;73.60;;;;;;5031539;28;20459;-53
2023/03/30 00:31:06;;;;;;;9.60;8.67;;;8.60;71.10;;;;;;5031509;28;20462;-53
2023/03/30 00:33:34;;;;;;;9.53;7.73;;;8.60;68.20;;;;;;5030924;28;20459;-54
2023/03/30 00:36:01;;;;;;;19.47;9.57;;;8.60;59.30;;;;;;5030041;28;20490;-52
2023/03/30 00:38:28;;;;;;;11.13;9.20;;;8.60;58.30;;;;;;5022126;28;20581;-53
2023/03/30 00:40:56;;;;;;;9.90;8.50;;;8.60;53.80;;;;;;5030073;28;20520;-54
2023/03/30 00:43:24;;;;;;;8.97;8.17;;;8.50;47.60;;;;;;5022243;28;20467;-54
2023/03/30 00:45:51;;;;;;;10.90;9.63;;;8.60;37.90;;;;;;5031080;28;20459;-53
2023/03/30 00:48:21;;;;;;;8.63;7.73;;;8.50;21.90;;;;;;5031446;28;20940;-52
2023/03/30 00:50:53;;;;;;;9.77;8.83;;;8.50;96.50;;;;;;5033553;28;20631;-53
2023/03/30 00:53:24;;;;;;;10.70;9.60;;;8.50;99.90;;;;;;5026611;28;20513;-53
2023/03/30 00:55:52;;;;;;;10.10;9.10;;;8.40;99.90;;;;;;5029680;28;20463;-53
2023/03/30 00:58:21;;;;;;;10.13;9.07;;;8.40;99.90;;;;;;5027454;28;20545;-53
2023/03/30 01:00:48;;;;;;;10.77;8.77;;;8.40;99.90;;;;;;5042465;23;20492;-51
2023/03/30 01:03:19;;;;;;;9.27;8.47;;;8.40;99.90;;;;;;5009653;28;20459;-51
2023/03/30 01:05:47;;;;;;;10.83;9.10;;;8.40;99.90;;;;;;5013508;28;20457;-51
2023/03/30 01:08:17;;;;;;;9.77;8.83;;;8.40;99.90;;;;;;5013177;28;20463;-51
2023/03/30 01:10:44;;;;;;;9.53;8.47;;;8.40;99.90;;;;;;4999827;28;20574;-51
2023/03/30 01:13:11;;;;;;;10.63;8.80;;;8.40;99.90;;;;;;5007391;28;20510;-51
2023/03/30 01:15:46;;;;;;;11.57;8.30;;;8.30;99.90;;;;;;5006457;28;20883;-51
2023/03/30 01:18:25;;;;;;;11.30;9.10;;;8.30;99.90;;;;;;5005066;28;20469;-51
2023/03/30 01:21:31;;;;;;;11.17;8.50;;;8.20;99.90;;;;;;5013621;28;21012;-51
2023/03/30 01:24:34;;;;;;;10.83;8.33;;;8.20;99.90;;;;;;5009454;28;20918;-51
2023/03/30 01:27:06;;;;;;;9.93;8.53;;;8.20;99.90;;;;;;5009070;28;20490;-52
2023/03/30 01:29:44;;;;;;;14.73;8.93;;;8.20;99.90;;;;;;5009856;28;20490;-51
2023/03/30 01:32:40;;;;;;;13.00;8.10;;;8.20;99.90;;;;;;5001660;28;20496;-51
2023/03/30 01:35:38;;;;;;;9.33;8.33;;;8.10;99.90;;;;;;5004758;28;20462;-51
2023/03/30 01:38:31;;;;;;;10.67;9.57;;;8.10;99.90;;;;;;5013304;28;20487;-52
2023/03/30 01:41:08;;;;;;;10.53;8.93;;;8.10;99.90;;;;;;5009129;28;20546;-51
2023/03/30 01:43:38;;;;;;;14.73;9.20;;;8.00;92.30;;;;;;5012113;28;20455;-51
2023/03/30 01:46:08;;;;;;;13.07;8.97;;;8.00;86.80;;;;;;5000494;28;20959;-51
2023/03/30 01:48:44;;;;;;;9.73;8.60;;;8.00;80.70;;;;;;5012702;28;20464;-51
2023/03/30 01:51:13;;;;;;;10.20;8.13;;;8.00;76.50;;;;;;5013786;28;20552;-52
2023/03/30 01:53:47;;;;;;;10.23;8.60;;;8.00;73.20;;;;;;5010810;28;20867;-52
2023/03/30 01:56:20;;;;;;;11.17;9.97;;;8.00;71.20;;;;;;5011777;28;20884;-51
2023/03/30 01:58:51;;;;;;;9.00;8.10;;;7.90;67.10;;;;;;5009108;28;20470;-51
2023/03/30 02:01:20;;;;;;;13.73;8.87;;;8.00;63.60;;;;;;5009528;28;20472;-52
2023/03/30 02:03:51;;;;;;;9.93;8.40;;;8.00;61.40;;;;;;5012228;28;20459;-51
2023/03/30 02:06:23;;;;;;;11.50;8.40;;;8.00;58.90;;;;;;5005599;28;20535;-51
2023/03/30 02:08:53;;;;;;;13.23;9.07;;;8.00;58.20;;;;;;5015102;28;20519;-54
2023/03/30 02:11:24;;;;;;;9.23;8.33;;;8.00;56.60;;;;;;5009817;28;20484;-54
2023/03/30 02:13:52;;;;;;;9.50;8.70;;;8.00;55.20;;;;;;5010058;28;20495;-53
2023/03/30 02:16:24;;;;;;;9.13;7.83;;;8.00;53.60;;;;;;5010940;28;20957;-56
2023/03/30 02:18:53;;;;;;;9.60;8.57;;;8.00;52.60;;;;;;5014552;28;20452;-56
2023/03/30 02:21:20;;;;;;;10.70;8.53;;;8.00;51.20;;;;;;5011434;28;20555;-55
2023/03/30 02:23:47;;;;;;;9.30;8.40;;;8.00;49.50;;;;;;5009602;28;20884;-53
2023/03/30 02:26:14;;;;;;;9.10;7.20;;;8.00;47.30;;;;;;5009637;28;20464;-54
2023/03/30 02:28:42;;;;;;;9.57;8.33;;;8.00;45.80;;;;;;5014548;28;20440;-55
2023/03/30 02:31:12;;;;;;;9.80;8.83;;;8.00;44.30;;;;;;5014006;28;20472;-55
2023/03/30 02:33:52;;;;;;;11.57;9.23;;;7.90;43.10;;;;;;5010314;28;20466;-54
2023/03/30 02:36:34;;;;;;;9.13;8.23;;;7.90;42.00;;;;;;5002954;28;20487;-57
2023/03/30 02:39:16;;;;;;;9.93;8.93;;;7.90;39.80;;;;;;5011482;28;20805;-55
2023/03/30 02:41:59;;;;;;;8.80;7.60;;;7.90;38.40;;;;;;5009635;28;20458;-57
2023/03/30 02:44:35;;;;;;;10.80;8.73;;;7.90;37.60;;;;;;5008658;28;20483;-54
2023/03/30 02:47:07;;;;;;;11.57;8.30;;;7.90;36.80;;;;;;5010604;28;20463;-54
2023/03/30 02:49:47;;;;;;;8.53;7.70;;;7.80;36.10;;;;;;5008197;28;20480;-56
2023/03/30 02:52:23;;;;;;;9.63;7.97;;;7.80;35.30;;;;;;5010315;28;20459;-56
2023/03/30 02:54:56;;;;;;;10.23;9.10;;;7.80;35.00;;;;;;5009491;28;20541;-55
2023/03/30 02:57:31;;;;;;;8.13;7.53;;;7.70;34.50;;;;;;5010232;28;20542;-54
2023/03/30 03:00:07;;;;;;;10.57;8.10;;;7.70;34.00;;;;;;5008401;28;20515;-52
2023/03/30 03:02:39;;;;;;;8.50;7.80;;;7.70;33.50;;;;;;5005879;28;20464;-51
2023/03/30 03:05:08;;;;;;;8.10;7.40;;;7.60;33.10;;;;;;5011066;28;20709;-51
2023/03/30 03:07:35;;;;;;;9.43;8.50;;;7.60;32.80;;;;;;5012442;28;20534;-51
2023/03/30 03:10:01;;;;;;;11.17;8.40;;;7.60;32.10;;;;;;5012101;28;20484;-52
2023/03/30 03:12:28;;;;;;;8.57;7.70;;;7.60;31.90;;;;;;5009496;28;20491;-52
2023/03/30 03:14:55;;;;;;;9.63;8.63;;;7.60;31.70;;;;;;5009094;28;20487;-52
2023/03/30 03:17:23;;;;;;;8.23;7.50;;;7.50;31.20;;;;;;5010518;28;20802;-53
2023/03/30 03:19:50;;;;;;;10.90;7.57;;;7.60;31.10;;;;;;5006880;28;20496;-51
2023/03/30 03:22:17;;;;;;;11.43;8.03;;;7.50;31.50;;;;;;5008356;28;20592;-52
2023/03/30 03:24:44;;;;;;;8.30;7.40;;;7.50;31.40;;;;;;5012104;28;20475;-51
2023/03/30 03:27:11;;;;;;;8.23;7.40;;;7.50;31.50;;;;;;5010110;28;20475;-51
2023/03/30 03:29:38;;;;;;;12.23;8.00;;;7.40;31.30;;;;;;5007274;28;20822;-52
2023/03/30 03:32:04;;;;;;;14.43;8.50;;;7.40;31.20;;;;;;5012284;28;20552;-52
2023/03/30 03:34:32;;;;;;;9.47;7.47;;;7.40;30.60;;;;;;5010378;28;20456;-52
2023/03/30 03:36:59;;;;;;;9.37;7.57;;;7.50;30.20;;;;;;5005432;28;20523;-52
2023/03/30 03:39:26;;;;;;;9.70;7.57;;;7.50;29.80;;;;;;5012265;28;20515;-52
2023/03/30 03:41:53;;;;;;;9.23;8.23;;;7.60;29.40;;;;;;5013165;28;20523;-52
2023/03/30 03:44:19;;;;;;;9.20;8.33;;;7.50;29.00;;;;;;5005261;28;20534;-52
2023/03/30 03:46:46;;;;;;;12.30;7.53;;;7.60;28.60;;;;;;5004526;28;20464;-50
2023/03/30 03:49:12;;;;;;;9.20;7.87;;;7.60;28.10;;;;;;5011215;28;20449;-52
2023/03/30 03:51:40;;;;;;;8.43;7.40;;;7.60;27.90;;;;;;5011562;28;20485;-52
2023/03/30 03:54:07;;;;;;;15.60;8.10;;;7.60;27.70;;;;;;5009041;28;20466;-52
2023/03/30 03:56:34;;;;;;;18.27;15.77;;;7.70;27.60;;;;;;5002991;28;20463;-51
2023/03/30 03:59:02;;;;;;;10.27;7.53;;;7.70;27.20;;;;;;5011838;28;20551;-51
2023/03/30 04:01:29;;;;;;;8.57;7.33;;;7.70;26.80;;;;;;5008140;28;20484;-52
2023/03/30 04:03:56;;;;;;;9.17;8.00;;;7.70;26.50;;;;;;5003029;28;20467;-53
2023/03/30 04:06:23;;;;;;;8.13;7.33;;;7.70;26.60;;;;;;5005523;28;20534;-52
2023/03/30 04:08:51;;;;;;;7.97;7.27;;;7.70;26.60;;;;;;5002688;28;20468;-51
2023/03/30 04:11:17;;;;;;;8.00;7.20;;;7.70;26.50;;;;;;5011460;28;20581;-52
2023/03/30 04:13:44;;;;;;;7.73;6.93;;;7.80;26.40;;;;;;5010779;28;20472;-53
2023/03/30 04:16:11;;;;;;;9.37;7.10;;;7.80;26.20;;;;;;5009637;28;20492;-52
2023/03/30 04:18:40;;;;;;;8.17;7.37;;;7.80;26.70;;;;;;5004539;28;20466;-52
2023/03/30 04:21:11;;;;;;;9.20;8.20;;;7.80;27.50;;;;;;5007734;28;20485;-52
2023/03/30 04:23:44;;;;;;;9.50;6.90;;;7.80;27.70;;;;;;4999336;28;21019;-52
2023/03/30 04:26:14;;;;;;;10.33;7.90;;;7.80;27.60;;;;;;5005830;28;21089;-53
2023/03/30 04:28:41;;;;;;;8.53;6.93;;;7.80;27.70;;;;;;5004308;28;20472;-56
2023/03/30 04:31:11;;;;;;;8.10;7.00;;;7.80;27.70;;;;;;5007982;28;20480;-55
2023/03/30 04:33:44;;;;;;;8.50;7.50;;;7.90;26.20;;;;;;5002443;28;20510;-56
2023/03/30 04:36:11;;;;;;;11.60;7.13;;;7.90;28.30;;;;;;5008344;28;20474;-52
2023/03/30 04:38:41;;;;;;;8.07;7.33;;;7.90;28.90;;;;;;5006487;28;20787;-52
2023/03/30 04:41:09;;;;;;;12.33;7.37;;;7.80;29.30;;;;;;5006799;28;21024;-52
2023/03/30 04:43:37;;;;;;;10.27;7.80;;;7.80;29.80;;;;;;5009082;28;20964;-52
2023/03/30 04:46:04;;;;;;;7.50;6.80;;;7.80;30.10;;;;;;4998923;28;20499;-52
2023/03/30 04:48:31;;;;;;;9.80;7.00;;;7.80;29.80;;;;;;5002593;28;20465;-51
2023/03/30 04:50:58;;;;;;;10.70;8.33;;;7.70;29.80;;;;;;4997456;28;20485;-51
2023/03/30 04:53:24;;;;;;;8.77;7.87;;;7.70;29.50;;;;;;4997200;28;20467;-51
2023/03/30 04:55:51;;;;;;;10.53;7.73;;;7.80;29.30;;;;;;4997980;28;20455;-51
2023/03/30 04:58:18;;;;;;;11.83;8.43;;;7.80;29.10;;;;;;4994668;28;20486;-51
2023/03/30 05:00:46;;;;;;;12.93;8.60;;;7.80;29.50;;;;;;5007919;28;20523;-52
2023/03/30 05:03:13;;;;;;;10.10;8.77;;;7.80;29.80;;;;;;5010210;28;20444;-52
2023/03/30 05:05:40;;;;;;;10.07;8.50;;;7.80;30.60;;;;;;5001700;28;20484;-52
2023/03/30 05:08:06;;;;;;;12.60;8.20;;;7.80;31.20;;;;;;5009907;28;20527;-54
2023/03/30 05:10:33;;;;;;;10.80;8.47;;;7.90;31.10;;;;;;5010950;28;20468;-52
2023/03/30 05:12:59;;;;;;;12.60;8.87;;;7.90;31.40;;;;;;5004849;28;20464;-52
2023/03/30 05:15:26;;;;;;;11.03;8.13;;;7.90;31.20;;;;;;5002441;28;20522;-53
2023/03/30 05:17:54;;;;;;;8.53;7.73;;;7.90;31.10;;;;;;5011554;28;20464;-52
2023/03/30 05:20:21;;;;;;;11.00;8.37;;;8.00;31.50;;;;;;5004675;28;20854;-52
2023/03/30 05:22:48;;;;;;;9.60;7.60;;;8.10;32.80;;;;;;5008933;28;20514;-51
2023/03/30 05:25:15;;;;;;;8.40;7.53;;;8.10;35.80;;;;;;5009598;28;20479;-51
2023/03/30 05:27:41;;;;;;;7.63;6.93;;;8.20;38.40;;;;;;5006970;28;20537;-51
2023/03/30 05:30:09;;;;;;;9.17;8.03;;;8.20;38.50;;;;;;4996492;28;20485;-51
2023/03/30 05:32:35;;;;;;;13.00;8.07;;;8.20;40.60;;;;;;5010801;28;20460;-51
2023/03/30 05:35:04;;;;;;;10.43;8.53;;;8.30;42.00;;;;;;5004337;28;21149;-52
2023/03/30 05:37:31;;;;;;;8.40;7.60;;;8.20;44.10;;;;;;5006049;28;20514;-51
2023/03/30 05:39:57;;;;;;;13.97;7.93;;;8.20;43.50;;;;;;5004733;28;20582;-51
2023/03/30 05:42:24;;;;;;;9.27;8.37;;;8.30;43.40;;;;;;5011428;28;20503;-51
2023/03/30 05:44:50;;;;;;;11.10;8.10;;;8.30;43.40;;;;;;5005444;28;20547;-51
2023/03/30 05:47:17;;;;;;;8.20;7.40;;;8.30;43.60;;;;;;5008650;28;20468;-51
2023/03/30 05:49:44;;;;;;;10.43;8.17;;;8.30;45.30;;;;;;5000180;28;20853;-51
2023/03/30 05:52:12;;;;;;;8.03;7.20;;;8.40;50.70;;;;;;5000289;28;20461;-51
2023/03/30 05:54:38;;;;;;;11.27;7.20;;;8.40;49.50;;;;;;5011998;28;21016;-50
2023/03/30 05:57:05;;;;;;;8.67;7.40;;;8.50;51.50;;;;;;5011416;28;20457;-51
2023/03/30 05:59:32;;;;;;;7.77;7.07;;;8.40;50.70;;;;;;5011652;28;20462;-52
2023/03/30 06:01:59;;;;;;;7.77;7.07;;;8.50;51.00;;;;;;5005252;28;20521;-50
2023/03/30 06:04:26;;;;;;;9.27;7.87;;;8.50;53.60;;;;;;5000749;28;20465;-51
2023/03/30 06:06:53;;;;;;;10.63;9.63;;;8.50;54.60;;;;;;5014431;28;20487;-51
2023/03/30 06:09:22;;;;;;;9.30;8.30;;;8.50;55.50;;;;;;5005549;28;20461;-51
2023/03/30 06:11:50;;;;;;;10.43;8.60;;;8.50;56.00;;;;;;5002451;28;20571;-51
2023/03/30 06:14:17;;;;;;;12.03;7.63;;;8.60;57.60;;;;;;5001204;28;20515;-51
2023/03/30 06:16:44;;;;;;;10.53;7.70;;;8.60;59.50;;;;;;5006311;28;20519;-51
2023/03/30 06:19:12;;;;;;;10.80;8.50;;;8.60;59.90;;;;;;5004208;28;20468;-52
2023/03/30 06:21:38;;;;;;;13.50;8.13;;;8.60;62.30;;;;;;5004385;28;20516;-54
2023/03/30 06:24:05;;;;;;;10.83;8.10;;;8.70;64.80;;;;;;5010367;28;20473;-51
2023/03/30 06:26:33;;;;;;;13.27;8.17;;;8.80;67.30;;;;;;5007902;28;20493;-52
2023/03/30 06:29:00;;;;;;;13.60;7.57;;;8.80;66.90;;;;;;5008482;28;20507;-51
2023/03/30 06:31:27;;;;;;;10.13;8.07;;;8.90;68.40;;;;;;5008104;28;21111;-52
2023/03/30 06:33:54;;;;;;;14.87;8.00;;;8.90;74.60;;;;;;5008369;28;20464;-52
2023/03/30 06:36:21;;;;;;;7.83;7.10;;;9.00;76.00;;;;;;5013141;28;20453;-51
2023/03/30 06:38:48;;;;;;;8.37;6.90;;;9.10;77.80;;;;;;5004396;28;20961;-54
2023/03/30 06:41:15;;;;;;;10.27;7.40;;;9.10;81.90;;;;;;5008629;28;20472;-51
2023/03/30 06:43:43;;;;;;;8.07;6.83;;;9.20;81.60;;;;;;5013262;28;20503;-53
2023/03/30 06:46:11;;;;;;;7.70;6.73;;;9.20;88.20;;;;;;5008054;28;20484;-53
2023/03/30 06:48:37;;;;;;;13.90;6.70;;;9.30;95.10;;;;;;5011649;28;20464;-52
2023/03/30 06:51:05;;;;;;;14.70;6.10;;;9.30;99.50;;;;;;5011103;28;20524;-52
2023/03/30 06:53:32;;;;;;;11.70;6.67;;;9.40;99.90;;;;;;5000225;28;20470;-51
2023/03/30 06:55:59;;;;;;;14.80;6.20;;;9.40;99.90;;;;;;5003367;28;20460;-52
2023/03/30 06:58:27;;;;;;;8.07;6.20;;;9.40;99.90;;;;;;5001623;28;20558;-52
2023/03/30 07:00:55;;;;;;;6.93;5.60;;;9.50;99.90;;;;;;5000247;28;20488;-54
2023/03/30 07:03:22;;;;;;;6.27;5.73;;;9.50;99.90;;;;;;4999822;28;20459;-53
2023/03/30 07:05:49;;;;;;;8.27;6.47;;;9.50;99.90;;;;;;5004861;28;20542;-52
2023/03/30 07:08:17;;;;;;;8.80;5.63;;;9.50;99.90;;;;;;5005539;28;20465;-52
2023/03/30 07:10:44;;;;;;;9.23;6.00;;;9.60;99.90;;;;;;5004035;28;20484;-53
2023/03/30 07:13:10;;;;;;;6.43;5.93;;;9.60;99.90;;;;;;5009974;28;20456;-53
2023/03/30 07:15:37;;;;;;;10.97;5.77;;;9.60;99.90;;;;;;5005423;28;20449;-52
2023/03/30 07:18:05;;;;;;;10.67;6.70;;;9.70;99.90;;;;;;5009854;28;20519;-52
2023/03/30 07:20:31;;;;;;;8.60;6.97;;;9.90;99.90;;;;;;5008227;28;21040;-53
2023/03/30 07:22:58;;;;;;;15.80;6.60;;;10.00;99.90;;;;;;5006293;28;20465;-52
2023/03/30 07:25:25;;;;;;;8.20;6.70;;;10.10;99.90;;;;;;5010715;28;20456;-52
2023/03/30 07:27:52;;;;;;;7.17;6.20;;;10.10;99.90;;;;;;5008222;28;20687;-52
2023/03/30 07:30:21;;;;;;;8.23;6.10;;;10.30;99.90;;;;;;5008086;28;20476;-52
2023/03/30 07:32:47;;;;;;;6.93;6.33;;;10.30;99.90;;;;;;5006596;28;20464;-53
2023/03/30 07:35:15;;;;;;;10.53;6.40;;;10.40;99.90;;;;;;5000127;28;20512;-52
2023/03/30 07:37:42;;;;;;;7.40;6.33;;;10.50;99.90;;;;;;5001736;28;20444;-52
2023/03/30 07:40:10;;;;;;;9.63;6.10;;;10.60;99.90;;;;;;4999464;28;20511;-52
2023/03/30 07:42:37;;;;;;;5.37;4.90;;;10.70;99.90;;;;;;5006913;28;20464;-52
2023/03/30 07:45:04;;;;;;;8.83;5.80;;;10.90;99.90;;;;;;5006513;28;20518;-52
2023/03/30 07:47:30;;;;;;;10.13;5.87;;;11.10;99.90;;;;;;5006517;28;20484;-53
2023/03/30 07:49:57;;;;;;;12.17;6.80;;;11.30;99.90;;;;;;5007335;28;20538;-52
2023/03/30 07:52:26;;;;;;;10.00;6.10;;;11.40;99.90;;;;;;5007579;28;21036;-52
2023/03/30 07:54:53;;;;;;;7.70;5.13;;;11.40;99.90;;;;;;5006961;28;20488;-53
2023/03/30 07:57:20;;;;;;;5.87;5.27;;;11.40;75.90;;;;;;5011863;28;20529;-51
2023/03/30 07:59:47;;;;;;;6.50;5.13;;;11.50;24.90;;;;;;5012215;28;20491;-52
2023/03/30 08:02:14;;;;;;;5.60;5.10;;;11.50;84.40;;;;;;5007227;28;20865;-53
2023/03/30 08:04:42;;;;;;;8.80;4.57;;;11.70;32.00;;;;;;5002985;28;20874;-52
2023/03/30 08:07:09;;;;;;;8.70;5.50;;;11.80;49.90;;;;;;5011996;28;20475;-53
2023/03/30 08:09:37;;;;;;;7.03;5.17;;;12.00;53.10;;;;;;5010938;28;20449;-52
2023/03/30 08:12:04;;;;;;;11.47;5.60;;;12.10;47.50;;;;;;5003743;28;20476;-53
2023/03/30 08:14:31;;;;;;;7.13;4.60;;;12.20;77.80;;;;;;4997459;28;20468;-53
2023/03/30 08:16:58;;;;;;;6.93;4.70;;;12.30;79.70;;;;;;4998360;28;20464;-52
2023/03/30 08:19:27;;;;;;;5.17;4.70;;;12.40;77.30;;;;;;5006925;28;20817;-52
2023/03/30 08:21:55;;;;;;;5.17;4.67;;;12.60;99.90;;;;;;5003028;28;20956;-52
2023/03/30 08:24:21;;;;;;;5.93;4.70;;;13.10;99.90;;;;;;5006453;28;20544;-52
2023/03/30 08:26:49;;;;;;;7.93;4.93;;;13.30;99.90;;;;;;5008374;28;20531;-55
2023/03/30 08:29:17;;;;;;;6.93;4.43;;;13.70;99.90;;;;;;5000218;28;20474;-53
2023/03/30 08:31:44;;;;;;;9.50;4.10;;;14.00;99.90;;;;;;5006603;28;20462;-51
2023/03/30 08:34:11;;;;;;;10.70;4.87;;;14.30;99.90;;;;;;5000656;28;20854;-52
2023/03/30 08:36:38;;;;;;;9.07;4.30;;;14.50;29.50;;;;;;5009944;28;20572;-52
2023/03/30 08:39:05;;;;;;;7.23;4.43;;;14.70;62.40;;;;;;5007793;28;20836;-54
2023/03/30 08:42:02;;;;;;;5.37;3.70;;;15.10;79.40;;;;;;5011159;28;20571;-53
2023/03/30 08:44:35;;;;;;;7.03;4.50;;;15.50;99.90;;;;;;5001635;28;20470;-50
2023/03/30 08:47:04;;;;;;;6.43;4.10;;;15.80;99.90;;;;;;5004380;28;20473;-52
2023/03/30 08:49:35;;;;;;;6.33;4.30;;;15.70;99.90;;;;;;5000373;28;20864;-53
2023/03/30 08:52:04;;;;;;;11.00;3.93;;;15.80;99.90;;;;;;5000785;28;21210;-52
2023/03/30 08:54:32;;;;;;;3.83;3.00;;;16.00;99.90;;;;;;5005173;28;20457;-54
2023/03/30 08:57:06;;;;;;;10.03;3.57;;;16.10;99.90;;;;;;5010858;28;20513;-54
2023/03/30 08:59:42;;;;;;;5.60;3.43;;;16.20;99.90;;;;;;5010459;28;20430;-52
2023/03/30 09:02:15;;;;;;;6.83;3.00;;;16.50;99.90;;;;;;5007832;28;20591;-52
2023/03/30 09:04:55;;;;;;;4.17;3.23;;;16.60;99.90;;;;;;4992424;28;20469;-52
2023/03/30 09:07:24;;;;;;;6.70;3.20;;;16.60;99.90;;;;;;5005935;28;20473;-52
2023/03/30 09:09:52;;;;;;;3.23;2.93;;;16.40;99.90;;;;;;5011034;28;20470;-52
2023/03/30 09:12:27;;;;;;;10.03;2.83;;;16.50;99.90;;;;;;5004443;28;20462;-52
2023/03/30 09:14:59;;;;;;;11.47;3.47;;;16.40;99.90;;;;;;4998483;28;20466;-53
2023/03/30 09:17:32;;;;;;;3.50;2.60;;;16.40;99.90;;;;;;5003068;28;20523;-53
2023/03/30 09:20:02;;;;;;;3.87;2.80;;;16.50;99.90;;;;;;5003740;28;20495;-54
2023/03/30 09:22:35;;;;;;;5.20;3.30;;;16.50;99.90;;;;;;5003930;28;20466;-51
2023/03/30 09:25:02;;;;;;;8.87;3.40;;;16.40;99.90;;;;;;5008920;28;20523;-53
2023/03/30 09:27:34;;;;;;;9.00;3.23;;;16.30;99.90;;;;;;5008548;28;20926;-51
2023/03/30 09:30:18;;;;;;;10.10;3.10;;;16.00;99.90;;;;;;5000952;28;20486;-52
2023/03/30 09:32:57;;;;;;;6.57;3.13;;;16.00;99.90;;;;;;4999267;28;20474;-53
2023/03/30 09:35:28;;;;;;;9.40;3.50;;;15.90;99.90;;;;;;4998839;28;20469;-53
2023/03/30 09:37:55;;;;;;;6.13;2.33;;;16.10;99.90;;;;;;5002274;28;20467;-54
2023/03/30 09:40:34;;;;;;;4.27;3.27;;;16.20;99.90;;;;;;5000960;28;20543;-52
2023/03/30 09:43:10;;;;;;;7.03;2.93;;;16.20;99.90;;;;;;5003263;28;20556;-53
2023/03/30 09:45:39;;;;;;;11.13;2.70;;;16.30;99.90;;;;;;5000021;28;20587;-52
2023/03/30 09:48:07;;;;;;;3.53;2.30;;;16.60;99.90;;;;;;4995592;28;20623;-52
2023/03/30 09:50:38;;;;;;;11.97;2.90;;;17.10;99.90;;;;;;4993246;28;21106;-54
2023/03/30 09:53:08;;;;;;;7.23;2.63;;;17.40;99.90;;;;;;4997119;28;20471;-54
2023/03/30 09:55:36;;;;;;;5.37;3.10;;;17.80;99.90;;;;;;4999766;28;20517;-52
2023/03/30 09:58:17;;;;;;;8.17;2.73;;;17.80;99.90;;;;;;5005547;28;20439;-51
2023/03/30 10:00:46;;;;;;;7.23;2.77;;;17.50;99.90;;;;;;4992791;28;20923;-53
2023/03/30 10:03:20;;;;;;;4.90;2.80;;;17.00;99.90;;;;;;4992760;28;21204;-53
2023/03/30 10:06:01;;;;;;;5.63;2.83;;;17.00;99.90;;;;;;5009372;28;20461;-51
2023/03/30 10:08:28;;;;;;;6.50;3.10;;;16.80;99.90;;;;;;5002455;28;20484;-51
2023/03/30 10:10:56;;;;;;;11.40;2.50;;;16.60;99.90;;;;;;5006172;28;20495;-51
2023/03/30 10:13:30;;;;;;;6.70;3.10;;;16.80;99.90;;;;;;5000738;28;20460;-51
2023/03/30 10:16:04;;;;;;;8.97;3.40;;;16.80;99.90;;;;;;5000179;28;20472;-54
2023/03/30 10:18:37;;;;;;;6.50;2.30;;;17.20;99.90;;;;;;5010083;28;20454;-51
2023/03/30 10:21:06;;;;;;;10.73;3.00;;;17.00;99.90;;;;;;4997974;28;20482;-54
2023/03/30 10:23:38;;;;;;;7.30;2.63;;;16.90;99.90;;;;;;5007622;28;20988;-52
2023/03/30 10:26:12;;;;;;;6.57;2.73;;;16.90;99.90;;;;;;5001556;28;20487;-52
2023/03/30 10:28:40;;;;;;;9.33;3.83;;;16.90;99.90;;;;;;5000089;28;20563;-50
2023/03/30 10:31:14;;;;;;;4.03;2.57;;;17.00;99.90;;;;;;4993602;28;20491;-52
2023/03/30 10:33:43;;;;;;;7.23;3.10;;;17.00;99.90;;;;;;4993133;28;20467;-52
2023/03/30 10:36:13;;;;;;;5.73;2.80;;;16.90;99.90;;;;;;4997322;28;20479;-53
2023/03/30 10:38:41;;;;;;;8.00;2.73;;;16.90;99.90;;;;;;4994086;28;20877;-52
2023/03/30 10:41:11;;;;;;;7.07;3.33;;;16.90;99.90;;;;;;4995788;28;20511;-52
2023/03/30 10:43:39;;;;;;;9.70;3.00;;;16.90;99.90;;;;;;5005567;28;20459;-52
2023/03/30 10:46:12;;;;;;;11.67;3.20;;;17.00;99.90;;;;;;5000748;28;20829;-52
2023/03/30 10:48:50;;;;;;;11.77;4.40;;;17.10;99.90;;;;;;4995751;28;20475;-53
2023/03/30 10:51:26;;;;;;;9.10;3.27;;;17.20;99.90;;;;;;5001571;28;20473;-52
2023/03/30 10:54:03;;;;;;;14.60;3.90;;;17.50;99.90;;;;;;5006411;28;20967;-53
2023/03/30 10:56:37;;;;;;;6.23;3.67;;;17.90;99.90;;;;;;5004781;28;20455;-55
2023/03/30 10:59:35;;;;;;;8.00;3.83;;;18.40;99.90;;;;;;5006788;28;20789;-54
2023/03/30 11:02:26;;;;;;;11.23;3.17;;;18.30;99.90;;;;;;5004747;28;20460;-54
2023/03/30 11:04:58;;;;;;;7.73;2.90;;;17.90;99.90;;;;;;5001132;28;20964;-55
2023/03/30 11:07:30;;;;;;;8.70;3.10;;;18.00;1.40;;;;;;5000502;28;20484;-53
2023/03/30 11:10:04;;;;;;;7.50;3.00;;;18.40;99.90;;;;;;5001601;28;20488;-52
2023/03/30 11:12:39;;;;;;;9.73;3.73;;;18.70;99.90;;;;;;5007115;28;20459;-54
2023/03/30 11:15:11;;;;;;;9.63;3.07;;;19.00;99.90;;;;;;4997506;28;20509;-51
2023/03/30 11:17:48;;;;;;;9.63;2.70;;;18.80;99.90;;;;;;4995423;28;20448;-54
2023/03/30 11:20:22;;;;;;;6.57;2.53;;;18.80;99.90;;;;;;5013206;28;20477;-52
2023/03/30 11:22:53;;;;;;;9.33;2.63;;;18.80;99.90;;;;;;4996085;28;20475;-53
2023/03/30 11:25:22;;;;;;;7.07;2.80;;;18.70;99.90;;;;;;4999725;28;20463;-51
2023/03/30 11:27:55;;;;;;;5.70;2.60;;;18.90;99.90;;;;;;5005318;28;20901;-52
2023/03/30 11:30:27;;;;;;;5.17;2.30;;;18.70;99.90;;;;;;5002460;28;20486;-51
2023/03/30 11:32:59;;;;;;;5.00;2.53;;;18.70;99.90;;;;;;5010294;28;20474;-52
2023/03/30 11:35:34;;;;;;;7.70;2.63;;;18.60;99.90;;;;;;4995358;28;20827;-53
2023/03/30 11:38:06;;;;;;;10.73;3.67;;;18.20;99.90;;;;;;4994434;28;20505;-51
2023/03/30 11:40:41;;;;;;;7.20;3.67;;;17.90;99.90;;;;;;4994007;28;20487;-50
2023/03/30 11:43:10;;;;;;;7.60;3.27;;;18.30;99.90;;;;;;4992447;28;20506;-52
2023/03/30 11:45:49;;;;;;;12.87;2.50;;;18.50;99.90;;;;;;4992167;28;20897;-51
2023/03/30 11:48:34;;;;;;;4.57;2.33;;;18.50;99.90;;;;;;4992664;28;20999;-51
2023/03/30 11:51:19;;;;;;;3.97;2.80;;;18.60;99.90;;;;;;4997781;28;20483;-51
2023/03/30 11:53:53;;;;;;;7.20;2.80;;;18.80;99.90;;;;;;4994762;28;20582;-51
2023/03/30 11:56:27;;;;;;;5.93;3.47;;;18.70;99.90;;;;;;5002358;28;20489;-51
2023/03/30 11:59:03;;;;;;;6.73;2.20;;;18.70;99.90;;;;;;5004675;28;20467;-50
2023/03/30 12:01:42;;;;;;;4.87;2.97;;;18.80;99.90;;;;;;4997439;28;20485;-51
2023/03/30 12:04:14;;;;;;;7.37;3.33;;;18.70;99.90;;;;;;5003070;28;20451;-51
2023/03/30 12:06:47;;;;;;;6.80;2.50;;;18.80;99.90;;;;;;4993493;28;20467;-50
2023/03/30 12:09:25;;;;;;;6.67;3.03;;;18.80;99.90;;;;;;4992616;28;20455;-51
2023/03/30 12:11:55;;;;;;;18.17;4.00;;;18.80;99.90;;;;;;4996028;28;21032;-51
2023/03/30 12:14:37;;;;;;;4.70;2.60;;;19.00;99.90;;;;;;4996409;28;20459;-51
2023/03/30 12:17:11;;;;;;;6.43;2.97;;;18.80;99.90;;;;;;4994787;28;20458;-51
2023/03/30 12:19:44;;;;;;;17.93;3.17;;;18.70;99.90;;;;;;4995711;28;20901;-51
2023/03/30 12:22:25;;;;;;;7.20;2.87;;;18.70;99.90;;;;;;4997618;28;20463;-51
2023/03/30 12:25:01;;;;;;;5.43;2.80;;;18.70;99.90;;;;;;4996857;28;20968;-51
2023/03/30 12:27:30;;;;;;;12.73;3.43;;;18.60;99.90;;;;;;4993958;28;20518;-51
2023/03/30 12:30:12;;;;;;;4.67;2.90;;;18.60;99.90;;;;;;4990464;28;20483;-50
2023/03/30 12:32:58;;;;;;;3.70;2.77;;;18.90;99.90;;;;;;4998398;28;20463;-51
2023/03/30 12:35:53;;;;;;;9.90;3.07;;;18.80;99.90;;;;;;4996431;28;20839;-51
2023/03/30 12:38:24;;;;;;;15.63;3.30;;;18.60;99.90;;;;;;4997604;28;20467;-50
2023/03/30 12:41:13;;;;;;;7.80;2.90;;;18.30;99.90;;;;;;4996719;28;20498;-51
2023/03/30 12:43:50;;;;;;;23.00;3.50;;;18.20;99.90;;;;;;4994026;28;20458;-55
2023/03/30 12:46:25;;;;;;;7.93;3.00;;;18.00;99.90;;;;;;5004793;28;20459;-56
2023/03/30 12:49:00;;;;;;;7.90;3.20;;;18.00;99.90;;;;;;5009403;28;20974;-53
2023/03/30 12:51:45;;;;;;;7.00;3.50;;;18.10;99.90;;;;;;5000665;28;20486;-51
2023/03/30 12:54:34;;;;;;;9.43;3.20;;;18.10;99.90;;;;;;5004571;28;20457;-51
2023/03/30 12:57:12;;;;;;;8.83;3.30;;;17.90;99.90;;;;;;4994149;28;20595;-50
2023/03/30 13:00:06;;;;;;;5.80;3.50;;;18.00;99.90;;;;;;4992648;28;20810;-51
2023/03/30 13:02:58;;;;;;;3.57;2.47;;;17.90;99.90;;;;;;5010524;23;20510;-57
2023/03/30 13:05:29;;;;;;;10.17;3.23;;;17.80;99.90;;;;;;4995150;28;20470;-57
2023/03/30 13:08:02;;;;;;;7.13;2.73;;;17.80;99.90;;;;;;5000485;28;20994;-58